Time;durP1;ratioP1;P1;durP2;ratioP2;P2;SDS_P1;SDS_P2;PMS_P1;PMS_P2;Temp;Humidity;BMP_temperature;BMP_pressure;BME280_temperature;BME280_humidity;BME280_pressure;Samples;Min_cycle;Max_cycle;Signal;HPM_P1;HPM_P2
2022/12/05 00:01:42;;;;;;;41.08;25.63;;;;;;;;;;5000913;28;99929;-72
2022/12/05 00:04:10;;;;;;;37.13;23.38;;;;;;;;;;4993990;28;98703;-72
2022/12/05 00:06:37;;;;;;;37.78;23.30;;;;;;;;;;4992418;28;99880;-72
2022/12/05 00:09:04;;;;;;;37.67;25.15;;;;;;;;;;4993621;28;98457;-72
2022/12/05 00:11:32;;;;;;;37.03;24.23;;;;;;;;;;5000440;28;98525;-72
2022/12/05 00:14:00;;;;;;;42.22;25.83;;;;;;;;;;5006066;28;99012;-73
2022/12/05 00:16:27;;;;;;;39.10;25.90;;;;;;;;;;5008633;28;98287;-72
2022/12/05 00:18:54;;;;;;;37.33;24.80;;;;;;;;;;4998990;28;99748;-72
2022/12/05 00:21:22;;;;;;;45.03;26.75;;;;;;;;;;5002452;28;100277;-72
2022/12/05 00:23:49;;;;;;;44.58;26.73;;;;;;;;;;4995728;28;98161;-72
2022/12/05 00:26:16;;;;;;;43.60;27.20;;;;;;;;;;5008067;28;99087;-72
2022/12/05 00:28:42;;;;;;;37.72;23.90;;;;;;;;;;4998998;28;98656;-72
2022/12/05 00:31:16;;;;;;;27.52;17.35;;;;;;;;;;4992874;28;98659;-72
2022/12/05 00:33:43;;;;;;;27.25;18.67;;;;;;;;;;4995149;28;100113;-72
2022/12/05 00:36:11;;;;;;;41.58;26.55;;;;;;;;;;4996558;28;98361;-72
2022/12/05 00:38:38;;;;;;;44.28;26.70;;;;;;;;;;5003173;28;98769;-72
2022/12/05 00:41:08;;;;;;;26.20;17.38;;;;;;;;;;5005394;28;98875;-72
2022/12/05 00:43:35;;;;;;;41.90;24.95;;;;;;;;;;5006425;28;98489;-72
2022/12/05 00:46:02;;;;;;;39.35;24.02;;;;;;;;;;5006416;28;100037;-71
2022/12/05 00:48:29;;;;;;;40.20;25.90;;;;;;;;;;4998785;28;98660;-72
2022/12/05 00:50:59;;;;;;;43.28;27.40;;;;;;;;;;5000174;28;98720;-72
2022/12/05 00:53:26;;;;;;;39.40;25.80;;;;;;;;;;4999861;28;100398;-71
2022/12/05 00:55:52;;;;;;;42.25;24.80;;;;;;;;;;4999802;28;98362;-73
2022/12/05 00:58:18;;;;;;;39.45;25.13;;;;;;;;;;4999793;28;98904;-71
2022/12/05 01:00:44;;;;;;;45.38;26.52;;;;;;;;;;4999524;28;99958;-74
2022/12/05 01:03:11;;;;;;;47.53;28.83;;;;;;;;;;4995722;28;98297;-72
2022/12/05 01:05:37;;;;;;;46.10;25.50;;;;;;;;;;4997384;28;99339;-73
2022/12/05 01:08:03;;;;;;;45.72;27.67;;;;;;;;;;5007178;28;98345;-72
2022/12/05 01:10:30;;;;;;;51.13;27.98;;;;;;;;;;4991906;28;98421;-72
2022/12/05 01:12:57;;;;;;;43.72;26.42;;;;;;;;;;5000088;28;99947;-72
2022/12/05 01:15:24;;;;;;;40.40;24.70;;;;;;;;;;4996679;28;98317;-73
2022/12/05 01:17:50;;;;;;;45.38;28.23;;;;;;;;;;4997151;28;99640;-72
2022/12/05 01:20:16;;;;;;;53.83;31.48;;;;;;;;;;5000077;28;100424;-72
2022/12/05 01:22:43;;;;;;;49.90;30.13;;;;;;;;;;5007479;28;99451;-73
2022/12/05 01:25:09;;;;;;;45.60;27.15;;;;;;;;;;4989577;28;98365;-72
2022/12/05 01:27:35;;;;;;;49.92;29.52;;;;;;;;;;4993661;28;99098;-72
2022/12/05 01:30:02;;;;;;;53.47;29.77;;;;;;;;;;4991591;28;98904;-72
2022/12/05 01:32:29;;;;;;;48.60;29.70;;;;;;;;;;4995745;28;99254;-72
2022/12/05 01:34:55;;;;;;;47.13;27.45;;;;;;;;;;4997137;28;98318;-72
2022/12/05 01:37:21;;;;;;;48.03;28.95;;;;;;;;;;4998003;28;99574;-73
2022/12/05 01:39:48;;;;;;;46.80;27.40;;;;;;;;;;4999186;28;99658;-73
2022/12/05 01:42:14;;;;;;;54.17;27.67;;;;;;;;;;4991225;28;98337;-72
2022/12/05 01:44:41;;;;;;;48.63;25.75;;;;;;;;;;4992180;28;98457;-73
2022/12/05 01:47:07;;;;;;;57.33;30.60;;;;;;;;;;4991613;28;99009;-73
2022/12/05 01:49:36;;;;;;;48.40;28.80;;;;;;;;;;5001691;28;98418;-72
2022/12/05 01:52:06;;;;;;;57.78;28.67;;;;;;;;;;4995093;28;99829;-72
2022/12/05 01:54:34;;;;;;;52.78;30.98;;;;;;;;;;4995417;28;98632;-73
2022/12/05 01:57:02;;;;;;;48.45;29.08;;;;;;;;;;5002179;28;99083;-73
2022/12/05 01:59:31;;;;;;;51.25;26.23;;;;;;;;;;4997829;28;98921;-73
2022/12/05 02:01:58;;;;;;;49.83;29.48;;;;;;;;;;5001372;28;98356;-72
2022/12/05 02:04:26;;;;;;;54.17;27.02;;;;;;;;;;4987730;28;99897;-73
2022/12/05 02:06:53;;;;;;;48.80;27.55;;;;;;;;;;4987143;28;99943;-72
2022/12/05 02:09:20;;;;;;;46.65;25.25;;;;;;;;;;4991490;28;98044;-73
2022/12/05 02:11:51;;;;;;;46.10;29.15;;;;;;;;;;4997893;28;98863;-72
2022/12/05 02:14:17;;;;;;;45.13;26.85;;;;;;;;;;5002794;28;99431;-73
2022/12/05 02:16:47;;;;;;;57.97;31.75;;;;;;;;;;4997483;28;98547;-73
2022/12/05 02:19:33;;;;;;;52.90;28.17;;;;;;;;;;4999449;28;100310;-73
2022/12/05 02:22:02;;;;;;;28.23;17.80;;;;;;;;;;4991913;28;99008;-74
2022/12/05 02:24:47;;;;;;;49.75;27.40;;;;;;;;;;4998314;28;99391;-73
2022/12/05 02:27:19;;;;;;;41.35;24.95;;;;;;;;;;4993600;28;99217;-72
2022/12/05 02:30:04;;;;;;;44.75;24.27;;;;;;;;;;4995499;28;98372;-72
2022/12/05 02:32:35;;;;;;;37.20;20.67;;;;;;;;;;4996414;28;99512;-72
2022/12/05 02:35:20;;;;;;;54.03;30.40;;;;;;;;;;4996039;28;98353;-72
2022/12/05 02:37:54;;;;;;;51.28;29.27;;;;;;;;;;4998769;28;98785;-72
2022/12/05 02:40:34;;;;;;;42.45;25.15;;;;;;;;;;5004086;28;100004;-72
2022/12/05 02:43:09;;;;;;;47.20;25.55;;;;;;;;;;4989158;28;98821;-72
2022/12/05 02:45:37;;;;;;;45.40;24.95;;;;;;;;;;4998453;28;99852;-72
2022/12/05 02:48:05;;;;;;;52.40;28.60;;;;;;;;;;4997997;28;100080;-72
2022/12/05 02:50:32;;;;;;;50.22;28.17;;;;;;;;;;4999161;28;98312;-72
2022/12/05 02:53:00;;;;;;;44.70;26.45;;;;;;;;;;5003306;28;99233;-72
2022/12/05 02:55:27;;;;;;;47.42;25.27;;;;;;;;;;5003341;28;99974;-73
2022/12/05 02:57:56;;;;;;;49.78;26.48;;;;;;;;;;5004554;28;99914;-72
2022/12/05 03:00:23;;;;;;;50.33;26.50;;;;;;;;;;4992792;28;100011;-73
2022/12/05 03:02:54;;;;;;;49.83;26.98;;;;;;;;;;4996871;28;98392;-72
2022/12/05 03:05:39;;;;;;;44.88;25.63;;;;;;;;;;4986832;28;98838;-71
2022/12/05 03:08:09;;;;;;;39.47;23.30;;;;;;;;;;4994221;28;100001;-72
2022/12/05 03:10:40;;;;;;;36.03;22.08;;;;;;;;;;4993260;28;98418;-73
2022/12/05 03:13:10;;;;;;;39.22;24.90;;;;;;;;;;5005838;28;99610;-72
2022/12/05 03:15:44;;;;;;;39.58;23.73;;;;;;;;;;4997726;28;100379;-72
2022/12/05 03:18:21;;;;;;;40.38;24.73;;;;;;;;;;4998119;28;98213;-72
2022/12/05 03:20:58;;;;;;;40.83;23.60;;;;;;;;;;4986657;28;100161;-72
2022/12/05 03:23:29;;;;;;;39.85;24.30;;;;;;;;;;4990782;28;98279;-72
2022/12/05 03:25:58;;;;;;;45.15;26.30;;;;;;;;;;4987886;28;99174;-72
2022/12/05 03:28:31;;;;;;;44.92;23.52;;;;;;;;;;4994280;28;100357;-71
2022/12/05 03:31:00;;;;;;;39.83;20.00;;;;;;;;;;4994686;28;98934;-72
2022/12/05 03:33:28;;;;;;;51.97;25.23;;;;;;;;;;4998869;28;98658;-72
2022/12/05 03:36:13;;;;;;;47.00;27.48;;;;;;;;;;4995709;28;99131;-72
2022/12/05 03:38:55;;;;;;;39.08;25.05;;;;;;;;;;4998281;28;98419;-72
2022/12/05 03:41:24;;;;;;;34.70;22.55;;;;;;;;;;4993317;28;99216;-72
2022/12/05 03:43:53;;;;;;;43.95;25.77;;;;;;;;;;4990637;28;98230;-72
2022/12/05 03:46:22;;;;;;;35.60;19.92;;;;;;;;;;4993285;28;99462;-72
2022/12/05 03:48:54;;;;;;;41.97;24.63;;;;;;;;;;4993346;28;99397;-73
2022/12/05 03:51:22;;;;;;;40.92;24.75;;;;;;;;;;4995286;28;98642;-73
2022/12/05 03:54:08;;;;;;;35.90;21.48;;;;;;;;;;4986749;28;98415;-72
2022/12/05 03:56:38;;;;;;;33.72;21.98;;;;;;;;;;4985529;28;99227;-73
2022/12/05 03:59:07;;;;;;;44.72;25.85;;;;;;;;;;4993514;28;100003;-73
2022/12/05 04:01:34;;;;;;;34.53;21.02;;;;;;;;;;5005765;28;98478;-73
2022/12/05 04:04:05;;;;;;;35.47;20.90;;;;;;;;;;4999954;28;99068;-71
2022/12/05 04:06:36;;;;;;;44.00;24.50;;;;;;;;;;4989446;28;98995;-73
2022/12/05 04:09:07;;;;;;;28.65;16.50;;;;;;;;;;4998913;28;99059;-73
2022/12/05 04:11:43;;;;;;;32.47;21.80;;;;;;;;;;4998958;28;98089;-73
2022/12/05 04:14:12;;;;;;;35.45;23.55;;;;;;;;;;5002651;28;98678;-73
2022/12/05 04:19:26;;;;;;;35.40;21.83;;;;;;;;;;5000955;28;100098;-73
2022/12/05 04:21:54;;;;;;;38.72;23.77;;;;;;;;;;5000485;28;99905;-72
2022/12/05 04:27:20;;;;;;;32.13;21.17;;;;;;;;;;4987774;28;98613;-72
2022/12/05 04:29:58;;;;;;;34.78;19.02;;;;;;;;;;4985669;28;99312;-72
2022/12/05 04:32:26;;;;;;;34.67;21.13;;;;;;;;;;4985549;28;98482;-72
2022/12/05 04:34:56;;;;;;;37.28;23.90;;;;;;;;;;4993920;28;99310;-72
2022/12/05 04:37:25;;;;;;;40.40;24.55;;;;;;;;;;5004710;28;100061;-72
2022/12/05 04:39:58;;;;;;;39.47;25.05;;;;;;;;;;4989676;28;98291;-72
2022/12/05 04:42:25;;;;;;;39.17;24.10;;;;;;;;;;4999356;28;98778;-72
2022/12/05 04:44:53;;;;;;;35.85;20.80;;;;;;;;;;4996534;28;100148;-72
2022/12/05 04:47:22;;;;;;;46.17;28.05;;;;;;;;;;5009227;28;98370;-72
2022/12/05 04:49:49;;;;;;;41.72;25.67;;;;;;;;;;4987472;28;99325;-73
2022/12/05 04:52:19;;;;;;;39.38;23.20;;;;;;;;;;4996733;28;98703;-73
2022/12/05 04:54:49;;;;;;;43.83;25.20;;;;;;;;;;4991849;28;99537;-72
2022/12/05 04:57:20;;;;;;;47.15;28.40;;;;;;;;;;4992352;28;99256;-73
2022/12/05 04:59:47;;;;;;;51.80;28.58;;;;;;;;;;5001176;28;98737;-72
2022/12/05 05:02:16;;;;;;;40.72;23.60;;;;;;;;;;4993231;28;99610;-73
2022/12/05 05:04:45;;;;;;;45.55;25.38;;;;;;;;;;4995953;28;99045;-73
2022/12/05 05:07:12;;;;;;;48.83;27.70;;;;;;;;;;4995071;28;98272;-72
2022/12/05 05:09:39;;;;;;;47.20;27.50;;;;;;;;;;4993330;28;99438;-71
2022/12/05 05:12:06;;;;;;;46.92;26.33;;;;;;;;;;4989098;28;98269;-72
2022/12/05 05:14:32;;;;;;;48.88;26.63;;;;;;;;;;4995840;28;98609;-73
2022/12/05 05:16:58;;;;;;;48.97;26.75;;;;;;;;;;4997755;28;99133;-71
2022/12/05 05:19:25;;;;;;;48.92;26.35;;;;;;;;;;4996446;28;98140;-72
2022/12/05 05:21:51;;;;;;;36.15;21.27;;;;;;;;;;5001097;28;98219;-73
2022/12/05 05:24:20;;;;;;;54.20;30.90;;;;;;;;;;5007866;28;100566;-72
2022/12/05 05:26:46;;;;;;;53.15;28.73;;;;;;;;;;4999090;28;98421;-72
2022/12/05 05:29:20;;;;;;;26.90;16.75;;;;;;;;;;5000898;28;98644;-72
2022/12/05 05:31:47;;;;;;;50.47;27.42;;;;;;;;;;5009265;28;99900;-72
2022/12/05 05:34:14;;;;;;;43.20;27.00;;;;;;;;;;4990301;28;99672;-72
2022/12/05 05:36:42;;;;;;;54.55;28.52;;;;;;;;;;5002881;28;99018;-72
2022/12/05 05:39:11;;;;;;;50.42;27.25;;;;;;;;;;4999672;28;99160;-73
2022/12/05 05:41:37;;;;;;;46.10;26.13;;;;;;;;;;4995763;28;99358;-72
2022/12/05 05:44:04;;;;;;;49.55;27.65;;;;;;;;;;4995413;28;100001;-72
2022/12/05 05:46:31;;;;;;;39.85;24.10;;;;;;;;;;4987219;28;98315;-73
2022/12/05 05:48:58;;;;;;;51.55;26.65;;;;;;;;;;4997622;28;99587;-73
2022/12/05 05:51:26;;;;;;;51.70;27.25;;;;;;;;;;4991752;28;98885;-72
2022/12/05 05:53:53;;;;;;;54.53;28.08;;;;;;;;;;5001005;28;99519;-73
2022/12/05 05:56:20;;;;;;;48.60;28.13;;;;;;;;;;4995458;28;100308;-72
2022/12/05 05:58:53;;;;;;;35.00;19.38;;;;;;;;;;5003170;28;98336;-72
2022/12/05 06:01:19;;;;;;;43.40;23.52;;;;;;;;;;5000553;28;99618;-73
2022/12/05 06:03:46;;;;;;;50.58;27.75;;;;;;;;;;4998835;28;100254;-72
2022/12/05 06:06:13;;;;;;;49.65;26.52;;;;;;;;;;5005617;28;98549;-72
2022/12/05 06:08:40;;;;;;;39.38;22.30;;;;;;;;;;4996956;28;98780;-72
2022/12/05 06:11:08;;;;;;;55.47;29.13;;;;;;;;;;4999293;28;100306;-72
2022/12/05 06:13:35;;;;;;;43.65;26.80;;;;;;;;;;4998850;28;98350;-73
2022/12/05 06:16:03;;;;;;;46.92;26.30;;;;;;;;;;5002431;28;99392;-73
2022/12/05 06:18:29;;;;;;;48.00;28.08;;;;;;;;;;4992152;28;98406;-73
2022/12/05 06:20:56;;;;;;;51.78;29.85;;;;;;;;;;4999480;28;99367;-72
2022/12/05 06:23:23;;;;;;;41.35;25.63;;;;;;;;;;4988055;28;100170;-72
2022/12/05 06:25:50;;;;;;;46.63;25.88;;;;;;;;;;4997626;28;98378;-72
2022/12/05 06:28:17;;;;;;;39.30;22.63;;;;;;;;;;4987074;28;98697;-72
2022/12/05 06:30:44;;;;;;;49.13;26.60;;;;;;;;;;4995801;28;100088;-72
2022/12/05 06:33:10;;;;;;;53.00;26.55;;;;;;;;;;4998537;28;98491;-72
2022/12/05 06:35:37;;;;;;;50.42;28.20;;;;;;;;;;4992032;28;99966;-72
2022/12/05 06:38:04;;;;;;;49.90;26.50;;;;;;;;;;5002099;28;100015;-72
2022/12/05 06:40:30;;;;;;;45.83;25.95;;;;;;;;;;4995796;28;98759;-72
2022/12/05 06:42:57;;;;;;;45.72;20.77;;;;;;;;;;5005827;28;99968;-73
2022/12/05 06:45:23;;;;;;;45.90;25.67;;;;;;;;;;4996365;28;98306;-73
2022/12/05 06:47:51;;;;;;;43.70;23.67;;;;;;;;;;4999601;28;98670;-72
2022/12/05 06:50:17;;;;;;;45.17;23.23;;;;;;;;;;4998027;28;99028;-71
2022/12/05 06:52:44;;;;;;;53.45;27.48;;;;;;;;;;4998816;28;98276;-72
2022/12/05 06:55:10;;;;;;;52.78;25.85;;;;;;;;;;5001682;28;98596;-73
2022/12/05 06:57:36;;;;;;;58.10;26.40;;;;;;;;;;5008314;28;99144;-71
2022/12/05 07:02:49;;;;;;;33.38;17.35;;;;;;;;;;5003578;28;99960;-72
2022/12/05 07:05:16;;;;;;;37.95;22.35;;;;;;;;;;4998412;28;98448;-72
2022/12/05 07:07:42;;;;;;;39.85;22.27;;;;;;;;;;4994574;28;99668;-72
2022/12/05 07:10:09;;;;;;;35.42;22.80;;;;;;;;;;4997450;28;100052;-73
2022/12/05 07:12:35;;;;;;;46.08;24.88;;;;;;;;;;4997846;28;98389;-72
2022/12/05 07:15:01;;;;;;;49.78;26.02;;;;;;;;;;4995680;28;99614;-73
2022/12/05 07:17:28;;;;;;;45.80;25.67;;;;;;;;;;5004417;28;100305;-72
2022/12/05 07:19:54;;;;;;;39.72;24.15;;;;;;;;;;5007567;28;98271;-71
2022/12/05 07:22:21;;;;;;;47.97;25.20;;;;;;;;;;4999611;28;99039;-72
2022/12/05 07:24:50;;;;;;;39.95;23.02;;;;;;;;;;5005167;28;98433;-71
2022/12/05 07:27:16;;;;;;;41.20;24.17;;;;;;;;;;4996902;28;98839;-72
2022/12/05 07:29:52;;;;;;;48.30;24.15;;;;;;;;;;4998027;28;98946;-73
2022/12/05 07:32:18;;;;;;;39.13;24.45;;;;;;;;;;4986645;28;98270;-73
2022/12/05 07:34:44;;;;;;;46.22;25.50;;;;;;;;;;4996836;28;98583;-72
2022/12/05 07:37:13;;;;;;;40.30;24.95;;;;;;;;;;4994414;28;100161;-72
2022/12/05 07:39:40;;;;;;;37.90;22.45;;;;;;;;;;4993395;28;98008;-72
2022/12/05 07:42:06;;;;;;;37.70;20.33;;;;;;;;;;5007393;28;98455;-72
2022/12/05 07:44:33;;;;;;;35.65;21.85;;;;;;;;;;4998840;28;98380;-72
2022/12/05 07:47:00;;;;;;;34.30;20.23;;;;;;;;;;5003118;28;99487;-73
2022/12/05 07:49:26;;;;;;;39.88;22.98;;;;;;;;;;4992749;28;100241;-71
2022/12/05 07:51:53;;;;;;;18.98;11.95;;;;;;;;;;4993819;28;98837;-74
2022/12/05 07:54:19;;;;;;;29.85;20.45;;;;;;;;;;4997052;28;98995;-72
2022/12/05 07:56:45;;;;;;;35.03;21.58;;;;;;;;;;4994320;28;99147;-72
2022/12/05 07:59:13;;;;;;;31.52;19.70;;;;;;;;;;5002781;28;98925;-72
2022/12/05 08:01:39;;;;;;;34.40;18.98;;;;;;;;;;4996918;28;99696;-72
2022/12/05 08:04:06;;;;;;;28.08;18.40;;;;;;;;;;5000914;28;100610;-72
2022/12/05 08:06:40;;;;;;;39.67;23.00;;;;;;;;;;4989006;28;100151;-73
2022/12/05 08:09:06;;;;;;;31.33;19.67;;;;;;;;;;4997032;28;99222;-73
2022/12/05 08:11:35;;;;;;;39.00;25.60;;;;;;;;;;4999167;28;98376;-72
2022/12/05 08:14:03;;;;;;;22.58;14.52;;;;;;;;;;5008162;28;98948;-72
2022/12/05 08:16:30;;;;;;;31.00;18.90;;;;;;;;;;5007662;28;98914;-72
2022/12/05 08:19:02;;;;;;;41.33;24.02;;;;;;;;;;4997601;28;98784;-72
2022/12/05 08:21:28;;;;;;;40.67;27.67;;;;;;;;;;4997810;28;99578;-71
2022/12/05 08:23:55;;;;;;;29.45;19.23;;;;;;;;;;4997349;28;100046;-73
2022/12/05 08:26:23;;;;;;;30.85;21.45;;;;;;;;;;4992275;28;98581;-75
2022/12/05 08:28:54;;;;;;;26.75;19.20;;;;;;;;;;5000153;28;100550;-72
2022/12/05 08:31:25;;;;;;;30.80;19.77;;;;;;;;;;5001503;28;98295;-72
2022/12/05 08:33:55;;;;;;;23.80;16.33;;;;;;;;;;4998596;28;98601;-73
2022/12/05 08:36:25;;;;;;;52.08;32.90;;;;;;;;;;5008513;28;100055;-73
2022/12/05 08:38:55;;;;;;;99.40;56.60;;;;;;;;;;5008537;28;98270;-73
2022/12/05 08:41:22;;;;;;;56.53;35.28;;;;;;;;;;5002865;28;99773;-73
2022/12/05 08:43:49;;;;;;;24.35;16.30;;;;;;;;;;4989060;28;98606;-73
2022/12/05 08:46:15;;;;;;;27.30;19.05;;;;;;;;;;5003306;28;98372;-73
2022/12/05 08:48:41;;;;;;;21.92;17.25;;;;;;;;;;4995852;28;99825;-73
2022/12/05 08:51:09;;;;;;;24.67;17.73;;;;;;;;;;4989667;28;98502;-73
2022/12/05 08:53:36;;;;;;;22.00;17.40;;;;;;;;;;5001751;28;99678;-73
2022/12/05 08:56:10;;;;;;;19.73;15.85;;;;;;;;;;5007282;28;100412;-73
2022/12/05 08:58:36;;;;;;;15.82;12.48;;;;;;;;;;5008283;28;99855;-73
2022/12/05 09:01:07;;;;;;;25.73;21.50;;;;;;;;;;4991532;28;99308;-74
2022/12/05 09:03:34;;;;;;;18.50;12.80;;;;;;;;;;4989131;28;100029;-73
2022/12/05 09:06:08;;;;;;;15.90;14.20;;;;;;;;;;4992679;28;98355;-72
2022/12/05 09:08:34;;;;;;;16.70;12.43;;;;;;;;;;4994138;28;98870;-73
2022/12/05 09:11:08;;;;;;;16.30;13.48;;;;;;;;;;5002148;28;98285;-73
2022/12/05 09:13:35;;;;;;;12.40;11.13;;;;;;;;;;4988899;28;99452;-73
2022/12/05 09:16:05;;;;;;;12.80;11.50;;;;;;;;;;4996240;28;100452;-73
2022/12/05 09:18:32;;;;;;;13.35;11.00;;;;;;;;;;4998236;28;98340;-73
2022/12/05 09:21:03;;;;;;;13.07;10.48;;;;;;;;;;4993803;28;99484;-74
2022/12/05 09:23:30;;;;;;;13.18;11.27;;;;;;;;;;4996415;28;99915;-73
2022/12/05 09:26:00;;;;;;;12.43;11.00;;;;;;;;;;5000086;28;98612;-73
2022/12/05 09:28:27;;;;;;;13.93;11.10;;;;;;;;;;5000086;28;99539;-74
2022/12/05 09:30:56;;;;;;;11.80;10.52;;;;;;;;;;4999885;28;100259;-74
2022/12/05 09:33:23;;;;;;;12.00;10.80;;;;;;;;;;4988614;28;99715;-74
2022/12/05 09:35:50;;;;;;;12.85;11.75;;;;;;;;;;5005630;28;100332;-73
2022/12/05 09:38:16;;;;;;;12.02;10.70;;;;;;;;;;5002731;28;98257;-73
2022/12/05 09:40:42;;;;;;;16.15;12.18;;;;;;;;;;4996061;28;99900;-73
2022/12/05 09:43:25;;;;;;;11.48;10.50;;;;;;;;;;5002151;28;98976;-73
2022/12/05 09:46:18;;;;;;;12.85;11.30;;;;;;;;;;4998660;28;98234;-73
2022/12/05 09:48:45;;;;;;;13.13;11.10;;;;;;;;;;4994824;28;99380;-73
2022/12/05 09:51:11;;;;;;;10.75;9.63;;;;;;;;;;5003727;28;100214;-73
2022/12/05 09:53:39;;;;;;;12.15;10.95;;;;;;;;;;4997038;28;98246;-74
2022/12/05 09:56:18;;;;;;;13.23;11.73;;;;;;;;;;4998026;28;99187;-74
2022/12/05 09:58:46;;;;;;;10.80;9.52;;;;;;;;;;4998430;28;98323;-74
2022/12/05 10:01:22;;;;;;;12.25;10.93;;;;;;;;;;5006094;28;99476;-74
2022/12/05 10:04:00;;;;;;;10.30;9.30;;;;;;;;;;4993605;28;99085;-74
2022/12/05 10:06:31;;;;;;;10.00;9.10;;;;;;;;;;4999045;28;98551;-75
2022/12/05 10:09:16;;;;;;;13.45;11.27;;;;;;;;;;5007012;28;99401;-73
2022/12/05 10:11:51;;;;;;;12.75;11.45;;;;;;;;;;5001535;28;99746;-73
2022/12/05 10:14:50;;;;;;;13.02;11.02;;;;;;;;;;4987838;28;98196;-73
2022/12/05 10:17:27;;;;;;;10.40;9.45;;;;;;;;;;4954339;28;99206;-73
2022/12/05 10:19:56;;;;;;;13.88;10.60;;;;;;;;;;4998071;28;98303;-74
2022/12/05 10:22:29;;;;;;;10.43;9.38;;;;;;;;;;4994389;28;99665;-74
2022/12/05 10:25:01;;;;;;;11.45;9.05;;;;;;;;;;4987424;28;99267;-73
2022/12/05 10:27:37;;;;;;;9.20;8.30;;;;;;;;;;4985740;28;98449;-73
2022/12/05 10:30:19;;;;;;;9.90;8.23;;;;;;;;;;4991239;28;99671;-73
2022/12/05 10:33:01;;;;;;;4.93;4.55;;;;;;;;;;4993367;28;99067;-72
2022/12/05 10:35:35;;;;;;;7.65;6.88;;;;;;;;;;4994345;28;98382;-73
2022/12/05 10:38:06;;;;;;;6.22;5.63;;;;;;;;;;5006263;28;99417;-73
2022/12/05 10:40:35;;;;;;;7.88;6.05;;;;;;;;;;5001989;28;100043;-73
2022/12/05 10:43:02;;;;;;;12.75;9.73;;;;;;;;;;4987764;28;99490;-73
2022/12/05 10:45:29;;;;;;;6.22;5.75;;;;;;;;;;4994766;28;99927;-72
2022/12/05 10:47:56;;;;;;;6.65;6.07;;;;;;;;;;5003438;28;98345;-75
2022/12/05 10:50:22;;;;;;;6.00;5.43;;;;;;;;;;5006958;28;100191;-73
2022/12/05 10:52:50;;;;;;;9.10;7.70;;;;;;;;;;4991327;28;100179;-73
2022/12/05 10:55:17;;;;;;;6.32;5.90;;;;;;;;;;4989936;28;98488;-73
2022/12/05 10:57:50;;;;;;;7.70;7.00;;;;;;;;;;5006708;28;99437;-74
2022/12/05 11:00:19;;;;;;;6.85;6.35;;;;;;;;;;4998072;28;100228;-73
2022/12/05 11:02:46;;;;;;;9.88;6.90;;;;;;;;;;4995986;28;98141;-73
2022/12/05 11:05:25;;;;;;;7.13;5.82;;;;;;;;;;4996566;28;100277;-72
2022/12/05 11:07:52;;;;;;;8.07;7.28;;;;;;;;;;4997970;28;98148;-74
2022/12/05 11:10:20;;;;;;;7.50;6.80;;;;;;;;;;4998305;28;99369;-74
2022/12/05 11:12:53;;;;;;;7.25;6.53;;;;;;;;;;4993135;28;99089;-73
2022/12/05 11:15:23;;;;;;;6.13;5.63;;;;;;;;;;4987013;28;98344;-74
2022/12/05 11:17:50;;;;;;;8.98;6.53;;;;;;;;;;4993139;28;98433;-73
2022/12/05 11:20:16;;;;;;;6.97;6.28;;;;;;;;;;4998687;28;99950;-73
2022/12/05 11:22:53;;;;;;;7.28;6.57;;;;;;;;;;4996041;28;98918;-73
2022/12/05 11:25:23;;;;;;;7.65;6.43;;;;;;;;;;4991867;28;100540;-74
2022/12/05 11:27:49;;;;;;;15.20;8.30;;;;;;;;;;4993759;28;98240;-74
2022/12/05 11:30:21;;;;;;;11.35;7.72;;;;;;;;;;5000434;28;98653;-74
2022/12/05 11:32:48;;;;;;;8.73;7.50;;;;;;;;;;4995125;28;99298;-74
2022/12/05 11:35:14;;;;;;;7.60;5.97;;;;;;;;;;4992520;28;98295;-72
2022/12/05 11:37:50;;;;;;;10.27;7.68;;;;;;;;;;5005154;28;99781;-72
2022/12/05 11:40:35;;;;;;;15.43;7.85;;;;;;;;;;4991864;28;100247;-73
2022/12/05 11:43:36;;;;;;;7.53;5.97;;;;;;;;;;4994316;28;98344;-72
2022/12/05 11:46:08;;;;;;;10.73;8.13;;;;;;;;;;5000073;28;99444;-73
2022/12/05 11:48:38;;;;;;;9.95;7.32;;;;;;;;;;5004397;28;98275;-73
2022/12/05 11:51:30;;;;;;;12.00;8.35;;;;;;;;;;4988142;28;99583;-73
2022/12/05 11:54:03;;;;;;;8.88;8.05;;;;;;;;;;4996761;28;100117;-74
2022/12/05 11:56:37;;;;;;;10.07;6.70;;;;;;;;;;5005193;28;98310;-73
2022/12/05 11:59:03;;;;;;;9.55;8.38;;;;;;;;;;5005970;28;99476;-73
2022/12/05 12:01:52;;;;;;;12.13;9.13;;;;;;;;;;5005453;28;101992;-73
2022/12/05 12:04:41;;;;;;;11.82;7.28;;;;;;;;;;4993124;28;98722;-72
2022/12/05 12:07:14;;;;;;;9.65;8.02;;;;;;;;;;4989406;28;99624;-71
2022/12/05 12:09:49;;;;;;;8.35;7.60;;;;;;;;;;5004318;28;99087;-72
2022/12/05 12:12:31;;;;;;;11.02;7.35;;;;;;;;;;5002436;28;99637;-72
2022/12/05 12:15:02;;;;;;;13.15;7.50;;;;;;;;;;4999989;28;99083;-71
2022/12/05 12:17:45;;;;;;;8.93;7.20;;;;;;;;;;4995292;28;98181;-71
2022/12/05 12:20:26;;;;;;;6.30;5.68;;;;;;;;;;4997258;28;98927;-72
2022/12/05 12:22:52;;;;;;;8.18;7.18;;;;;;;;;;4985123;28;99111;-71
2022/12/05 12:25:22;;;;;;;8.27;6.28;;;;;;;;;;5000568;28;98711;-72
2022/12/05 12:28:07;;;;;;;8.05;6.20;;;;;;;;;;4996368;28;98806;-71
2022/12/05 12:30:52;;;;;;;3.58;3.30;;;;;;;;;;4995488;28;99167;-71
2022/12/05 12:33:29;;;;;;;12.05;7.07;;;;;;;;;;5003125;28;98718;-71
2022/12/05 12:36:04;;;;;;;8.15;5.90;;;;;;;;;;4996839;28;100315;-71
2022/12/05 12:38:30;;;;;;;7.78;6.40;;;;;;;;;;5005303;28;98349;-72
2022/12/05 12:41:07;;;;;;;6.80;6.07;;;;;;;;;;5002062;28;99380;-72
2022/12/05 12:43:46;;;;;;;8.10;7.13;;;;;;;;;;5000596;28;99992;-72
2022/12/05 12:46:20;;;;;;;5.25;4.78;;;;;;;;;;4988666;28;98293;-71
2022/12/05 12:48:54;;;;;;;9.90;7.53;;;;;;;;;;4987655;28;98656;-72
2022/12/05 12:51:20;;;;;;;4.90;4.00;;;;;;;;;;4993547;28;100099;-72
2022/12/05 12:53:53;;;;;;;8.10;5.38;;;;;;;;;;4992323;28;98475;-71
2022/12/05 12:56:19;;;;;;;;;;;;;;;;;;4994489;28;99507;-72
2022/12/05 12:58:49;;;;;;;9.77;6.35;;;;;;;;;;5000776;28;123186;-71
2022/12/05 13:01:27;;;;;;;11.15;7.60;;;;;;;;;;5004759;28;99492;-72
2022/12/05 13:04:01;;;;;;;10.93;8.23;;;;;;;;;;4996225;28;100571;-73
2022/12/05 13:06:37;;;;;;;11.75;8.38;;;;;;;;;;4999925;28;98334;-72
2022/12/05 13:09:10;;;;;;;12.90;9.75;;;;;;;;;;4998540;28;99065;-72
2022/12/05 13:11:39;;;;;;;9.93;6.95;;;;;;;;;;5003063;28;98913;-72
2022/12/05 13:14:11;;;;;;;10.27;7.13;;;;;;;;;;4987452;28;98666;-72
2022/12/05 13:16:39;;;;;;;9.38;7.22;;;;;;;;;;4996379;28;99939;-71
2022/12/05 13:19:26;;;;;;;9.55;7.38;;;;;;;;;;4997054;28;98077;-72
2022/12/05 13:21:54;;;;;;;8.18;6.85;;;;;;;;;;5007099;28;99426;-72
2022/12/05 13:24:23;;;;;;;9.05;8.18;;;;;;;;;;4999335;28;99316;-72
2022/12/05 13:26:50;;;;;;;10.73;8.10;;;;;;;;;;5000128;28;98232;-72
2022/12/05 13:29:45;;;;;;;11.90;8.90;;;;;;;;;;5007219;28;99345;-71
2022/12/05 13:32:32;;;;;;;11.43;7.85;;;;;;;;;;4973268;28;99512;-71
2022/12/05 13:35:00;;;;;;;8.15;6.50;;;;;;;;;;4987605;28;98686;-72
2022/12/05 13:43:10;;;;;;;8.30;6.78;;;;;;;;;;4990942;28;98764;-71
2022/12/05 13:45:37;;;;;;;5.15;4.72;;;;;;;;;;4991392;28;99669;-71
2022/12/05 13:48:03;;;;;;;9.63;5.95;;;;;;;;;;4995684;28;102333;-72
2022/12/05 13:50:42;;;;;;;6.15;3.80;;;;;;;;;;4987285;28;99494;-72
2022/12/05 13:53:20;;;;;;;6.93;5.57;;;;;;;;;;4998378;28;100064;-72
2022/12/05 13:55:56;;;;;;;7.03;5.68;;;;;;;;;;5000518;28;98347;-71
2022/12/05 13:58:22;;;;;;;6.30;5.72;;;;;;;;;;4988365;28;99530;-75
2022/12/05 14:00:50;;;;;;;6.13;5.53;;;;;;;;;;4988042;28;100293;-73
2022/12/05 14:03:31;;;;;;;7.22;6.47;;;;;;;;;;4997703;28;98335;-73
2022/12/05 14:05:57;;;;;;;6.35;5.75;;;;;;;;;;4995290;28;99968;-73
2022/12/05 14:08:30;;;;;;;4.78;4.07;;;;;;;;;;5006179;28;98460;-73
2022/12/05 14:10:56;;;;;;;5.85;5.30;;;;;;;;;;5000286;28;99456;-74
2022/12/05 14:13:23;;;;;;;7.82;6.28;;;;;;;;;;5001494;28;100132;-73
2022/12/05 14:15:50;;;;;;;6.97;6.25;;;;;;;;;;5001994;28;98628;-74
2022/12/05 14:18:34;;;;;;;7.53;6.93;;;;;;;;;;4995865;28;99119;-73
2022/12/05 14:21:14;;;;;;;7.53;6.72;;;;;;;;;;4994989;28;100120;-74
2022/12/05 14:23:59;;;;;;;8.80;4.88;;;;;;;;;;5000537;28;99728;-74
2022/12/05 14:26:44;;;;;;;12.15;10.82;;;;;;;;;;4996485;28;99551;-74
2022/12/05 14:29:24;;;;;;;7.22;5.40;;;;;;;;;;4999824;28;98457;-73
2022/12/05 14:31:50;;;;;;;8.52;6.72;;;;;;;;;;4998262;28;98673;-74
2022/12/05 14:34:23;;;;;;;9.07;6.40;;;;;;;;;;5000728;28;100528;-73
2022/12/05 14:37:10;;;;;;;8.52;7.28;;;;;;;;;;5005170;28;98744;-73
2022/12/05 14:39:39;;;;;;;11.35;7.78;;;;;;;;;;4960956;28;99673;-74
2022/12/05 14:42:23;;;;;;;8.82;7.65;;;;;;;;;;4995724;28;100162;-73
2022/12/05 14:44:51;;;;;;;7.88;7.03;;;;;;;;;;4998960;28;98392;-74
2022/12/05 14:47:19;;;;;;;9.30;7.10;;;;;;;;;;4997646;28;99624;-73
2022/12/05 14:49:53;;;;;;;10.85;8.13;;;;;;;;;;4997308;28;99416;-75
2022/12/05 14:52:21;;;;;;;9.32;7.32;;;;;;;;;;5001726;28;99856;-73
2022/12/05 14:54:49;;;;;;;9.52;7.18;;;;;;;;;;5000359;28;100091;-72